createdAt,value
2017-12-25T00:00:33.890Z,20.41
2017-12-25T00:01:43.097Z,20.42
2017-12-25T00:02:52.036Z,20.35
2017-12-25T00:04:00.981Z,20.38
2017-12-25T00:05:10.186Z,20.47
2017-12-25T00:06:19.980Z,20.41
2017-12-25T00:07:29.206Z,20.36
2017-12-25T00:08:37.914Z,20.39
2017-12-25T00:09:47.427Z,20.43
2017-12-25T00:10:56.905Z,20.41
2017-12-25T00:12:05.883Z,20.41
2017-12-25T00:13:14.848Z,20.39
2017-12-25T00:14:24.385Z,20.41
2017-12-25T00:15:33.599Z,20.41
2017-12-25T00:16:42.550Z,20.47
2017-12-25T00:17:52.083Z,20.38
2017-12-25T00:19:01.126Z,20.33
2017-12-25T00:20:10.341Z,20.35
2017-12-25T00:21:19.577Z,20.47
2017-12-25T00:22:28.783Z,20.42
2017-12-25T00:23:37.745Z,20.42
2017-12-25T00:24:46.992Z,20.42
2017-12-25T00:25:55.964Z,20.39
2017-12-25T00:27:05.178Z,20.47
2017-12-25T00:28:13.882Z,20.39
2017-12-25T00:29:22.844Z,20.39
2017-12-25T00:30:31.789Z,20.38
2017-12-25T00:31:41.112Z,20.29
2017-12-25T00:32:50.102Z,20.39
2017-12-25T00:33:58.851Z,20.33
2017-12-25T00:35:07.814Z,20.36
2017-12-25T00:36:17.066Z,20.42
2017-12-25T00:37:26.282Z,20.39
2017-12-25T00:38:35.771Z,20.38
2017-12-25T00:39:44.727Z,20.39
2017-12-25T00:40:53.690Z,20.42
2017-12-25T00:42:02.674Z,20.41
2017-12-25T00:43:12.147Z,20.31
2017-12-25T00:44:21.090Z,20.42
2017-12-25T00:45:30.314Z,20.42
2017-12-25T00:46:39.298Z,20.42
2017-12-25T00:47:47.998Z,20.38
2017-12-25T00:48:56.713Z,20.41
2017-12-25T00:50:05.418Z,20.32
2017-12-25T00:51:14.425Z,20.33
2017-12-25T00:52:23.665Z,20.39
2017-12-25T00:53:32.372Z,20.29
2017-12-25T00:54:41.694Z,20.31
2017-12-25T00:55:50.661Z,20.33
2017-12-25T00:56:59.398Z,20.36
2017-12-25T00:58:08.632Z,20.29
2017-12-25T00:59:17.825Z,20.36
2017-12-25T01:00:26.618Z,20.36
2017-12-25T01:01:35.715Z,20.38
2017-12-25T01:02:44.450Z,20.35
2017-12-25T01:03:53.663Z,20.31
2017-12-25T01:05:02.770Z,20.41
2017-12-25T01:06:11.457Z,20.38
2017-12-25T01:07:20.204Z,20.35
2017-12-25T01:08:29.270Z,20.29
2017-12-25T01:09:38.815Z,20.31
2017-12-25T01:10:48.030Z,20.35
2017-12-25T01:11:57.244Z,20.36
2017-12-25T01:13:06.448Z,20.33
2017-12-25T01:14:15.728Z,20.39
2017-12-25T01:15:24.717Z,20.38
2017-12-25T01:16:33.962Z,20.32
2017-12-25T01:17:42.912Z,20.35
2017-12-25T01:18:51.856Z,20.32
2017-12-25T01:20:01.322Z,20.35
2017-12-25T01:21:10.526Z,20.38
2017-12-25T01:22:19.212Z,20.36
2017-12-25T01:23:28.158Z,20.41
2017-12-25T01:24:37.370Z,20.35
2017-12-25T01:25:46.575Z,20.36
2017-12-25T01:26:56.060Z,20.35
2017-12-25T01:28:05.014Z,20.36
2017-12-25T01:29:14.277Z,20.33
2017-12-25T01:30:23.505Z,20.35
2017-12-25T01:31:32.970Z,20.35
2017-12-25T01:32:41.926Z,20.35
2017-12-25T01:33:51.135Z,20.41
2017-12-25T01:35:00.078Z,20.39
2017-12-25T01:36:09.282Z,20.35
2017-12-25T01:37:18.225Z,20.38
2017-12-25T01:38:26.927Z,20.43
2017-12-25T01:39:36.402Z,20.35
2017-12-25T01:40:45.878Z,20.38
2017-12-25T01:41:54.563Z,20.36
2017-12-25T01:43:03.783Z,20.39
2017-12-25T01:44:12.987Z,20.36
2017-12-25T01:45:21.926Z,20.32
2017-12-25T01:46:31.391Z,20.32
2017-12-25T01:47:41.144Z,20.32
2017-12-25T01:48:49.822Z,20.33
2017-12-25T01:49:58.770Z,20.39
2017-12-25T01:51:07.709Z,20.39
2017-12-25T01:52:16.939Z,20.38
2017-12-25T01:53:26.175Z,20.38
2017-12-25T01:54:35.641Z,20.38
2017-12-25T01:55:44.609Z,20.41
2017-12-25T01:56:53.828Z,20.35
2017-12-25T01:58:02.521Z,20.35
2017-12-25T01:59:11.224Z,20.32
2017-12-25T02:00:20.164Z,20.35
2017-12-25T02:01:29.376Z,20.38
2017-12-25T02:02:38.582Z,20.39
2017-12-25T02:03:47.776Z,20.29
2017-12-25T02:04:56.723Z,20.39
2017-12-25T02:06:05.946Z,20.28
2017-12-25T02:07:15.149Z,20.39
2017-12-25T02:08:24.627Z,20.39
2017-12-25T02:09:33.827Z,20.39
2017-12-25T02:10:43.030Z,20.28
2017-12-25T02:11:51.991Z,20.36
2017-12-25T02:13:00.673Z,20.38
2017-12-25T02:14:09.623Z,20.29
2017-12-25T02:15:19.104Z,20.31
2017-12-25T02:16:28.303Z,20.42
2017-12-25T02:17:36.986Z,20.36
2017-12-25T02:18:45.687Z,20.32
2017-12-25T02:19:54.895Z,20.26
2017-12-25T02:21:04.092Z,20.32
2017-12-25T02:22:13.836Z,20.33
2017-12-25T02:23:23.042Z,20.35
2017-12-25T02:24:32.246Z,20.33
2017-12-25T02:25:41.467Z,20.33
2017-12-25T02:26:50.156Z,20.31
2017-12-25T02:27:59.622Z,20.36
2017-12-25T02:29:08.879Z,20.38
2017-12-25T02:30:17.820Z,20.32
2017-12-25T02:31:26.757Z,20.31
2017-12-25T02:32:35.965Z,20.33
2017-12-25T02:33:44.910Z,20.29
2017-12-25T02:34:53.860Z,20.32
2017-12-25T02:36:03.058Z,20.29
2017-12-25T02:37:12.035Z,20.35
2017-12-25T02:38:21.245Z,20.42
2017-12-25T02:39:30.181Z,20.32
2017-12-25T02:40:39.128Z,20.39
2017-12-25T02:41:48.629Z,20.29
2017-12-25T02:42:57.576Z,20.33
2017-12-25T02:44:06.540Z,20.28
2017-12-25T02:45:16.008Z,20.32
2017-12-25T02:46:25.222Z,20.32
2017-12-25T02:47:34.428Z,20.31
2017-12-25T02:48:43.164Z,20.31
2017-12-25T02:49:52.114Z,20.26
2017-12-25T02:51:01.593Z,20.35
2017-12-25T02:52:10.539Z,20.29
2017-12-25T02:53:19.477Z,20.32
2017-12-25T02:54:28.454Z,20.32
2017-12-25T02:55:37.667Z,20.28
2017-12-25T02:56:46.912Z,20.35
2017-12-25T02:57:55.850Z,20.35
2017-12-25T02:59:04.530Z,20.35
2017-12-25T03:00:13.212Z,20.38
2017-12-25T03:01:22.419Z,20.31
2017-12-25T03:02:31.131Z,20.35
2017-12-25T03:03:40.592Z,20.39
2017-12-25T03:04:49.794Z,20.28
2017-12-25T03:05:58.995Z,20.39
2017-12-25T03:07:08.231Z,20.32
2017-12-25T03:08:17.691Z,20.36
2017-12-25T03:09:27.168Z,20.32
2017-12-25T03:10:36.380Z,20.31
2017-12-25T03:11:45.317Z,20.39
2017-12-25T03:12:54.508Z,20.28
2017-12-25T03:14:03.453Z,20.33
2017-12-25T03:15:12.400Z,20.31
2017-12-25T03:16:21.107Z,20.35
2017-12-25T03:17:30.336Z,20.28
2017-12-25T03:18:39.806Z,20.31
2017-12-25T03:19:48.749Z,20.26
2017-12-25T03:20:57.952Z,20.39
2017-12-25T03:22:07.161Z,20.33
2017-12-25T03:23:16.105Z,20.35
2017-12-25T03:24:25.308Z,20.32
2017-12-25T03:25:34.769Z,20.31
2017-12-25T03:26:43.727Z,20.29
2017-12-25T03:27:52.672Z,20.33
2017-12-25T03:29:01.874Z,20.36
2017-12-25T03:30:11.082Z,20.33
2017-12-25T03:31:20.023Z,20.33
2017-12-25T03:32:28.994Z,20.32
2017-12-25T03:33:38.197Z,20.31
2017-12-25T03:34:47.132Z,20.36
2017-12-25T03:35:55.817Z,20.36
2017-12-25T03:37:04.788Z,20.32
2017-12-25T03:38:13.736Z,20.24
2017-12-25T03:39:22.678Z,20.36
2017-12-25T03:40:31.624Z,20.35
2017-12-25T03:41:41.084Z,20.33
2017-12-25T03:42:50.030Z,20.38
2017-12-25T03:43:58.723Z,20.33
2017-12-25T03:45:08.192Z,20.28
2017-12-25T03:46:16.872Z,20.39
2017-12-25T03:47:26.081Z,20.28
2017-12-25T03:48:35.019Z,20.38
2017-12-25T03:49:43.709Z,20.31
2017-12-25T03:50:52.392Z,20.32
2017-12-25T03:52:01.598Z,20.35
2017-12-25T03:53:10.810Z,20.26
2017-12-25T03:54:19.485Z,20.32
2017-12-25T03:55:28.698Z,20.41
2017-12-25T03:56:38.166Z,20.26
2017-12-25T03:57:46.866Z,20.28
2017-12-25T03:58:55.830Z,20.32
2017-12-25T04:00:04.781Z,20.31
2017-12-25T04:01:14.274Z,20.28
2017-12-25T04:02:22.955Z,20.28
2017-12-25T04:03:32.438Z,20.32
2017-12-25T04:04:41.133Z,20.39
2017-12-25T04:05:49.818Z,20.28
2017-12-25T04:06:58.804Z,20.26
2017-12-25T04:08:07.749Z,20.36
2017-12-25T04:09:16.696Z,20.33
2017-12-25T04:10:25.642Z,20.38
2017-12-25T04:11:34.598Z,20.32
2017-12-25T04:12:44.070Z,20.36
2017-12-25T04:13:53.280Z,20.39
2017-12-25T04:15:02.749Z,20.41
2017-12-25T04:16:11.701Z,20.32
2017-12-25T04:17:21.164Z,20.43
2017-12-25T04:18:30.370Z,20.31
2017-12-25T04:19:39.320Z,20.33
2017-12-25T04:20:48.528Z,20.28
2017-12-25T04:21:57.469Z,20.33
2017-12-25T04:23:06.681Z,20.39
2017-12-25T04:24:15.426Z,20.39
2017-12-25T04:25:24.633Z,20.33
2017-12-25T04:26:34.110Z,20.26
2017-12-25T04:27:43.600Z,20.36
2017-12-25T04:28:52.806Z,20.26
2017-12-25T04:30:02.011Z,20.39
2017-12-25T04:31:11.249Z,20.43
2017-12-25T04:32:20.720Z,20.33
2017-12-25T04:33:29.931Z,20.26
2017-12-25T04:34:38.876Z,20.29
2017-12-25T04:35:47.825Z,20.39
2017-12-25T04:36:56.773Z,20.39
2017-12-25T04:38:05.726Z,20.35
2017-12-25T04:39:14.932Z,20.28
2017-12-25T04:40:24.146Z,20.28
2017-12-25T04:41:33.088Z,20.38
2017-12-25T04:42:41.782Z,20.31
2017-12-25T04:43:50.734Z,20.36
2017-12-25T04:44:59.428Z,20.42
2017-12-25T04:46:08.381Z,20.35
2017-12-25T04:47:17.861Z,20.31
2017-12-25T04:48:27.072Z,20.35
2017-12-25T04:49:36.022Z,20.26
2017-12-25T04:50:45.298Z,20.41
2017-12-25T04:51:54.513Z,20.28
2017-12-25T04:53:03.462Z,20.36
2017-12-25T04:54:12.935Z,20.32
2017-12-25T04:55:22.154Z,20.28
2017-12-25T04:56:31.888Z,20.35
2017-12-25T04:57:40.562Z,20.39
2017-12-25T04:58:49.499Z,20.38
2017-12-25T04:59:58.984Z,20.36
2017-12-25T05:01:07.673Z,20.41
2017-12-25T05:02:16.374Z,20.33
2017-12-25T05:03:25.588Z,20.39
2017-12-25T05:04:34.547Z,20.38
2017-12-25T05:05:43.495Z,20.33
2017-12-25T05:06:52.445Z,20.39
2017-12-25T05:08:01.650Z,20.36
2017-12-25T05:09:10.617Z,20.28
2017-12-25T05:10:20.119Z,20.28
2017-12-25T05:11:29.068Z,20.39
2017-12-25T05:12:38.610Z,20.42
2017-12-25T05:13:47.851Z,20.28
2017-12-25T05:14:57.060Z,20.39
2017-12-25T05:16:06.537Z,20.42
2017-12-25T05:17:15.744Z,20.39
2017-12-25T05:18:25.201Z,20.38
2017-12-25T05:19:34.166Z,20.41
2017-12-25T05:20:43.375Z,20.33
2017-12-25T05:21:52.856Z,20.39
2017-12-25T05:23:02.581Z,20.28
2017-12-25T05:24:11.253Z,20.35
2017-12-25T05:25:19.926Z,20.32
2017-12-25T05:26:29.149Z,20.28
2017-12-25T05:27:38.611Z,20.32
2017-12-25T05:28:47.841Z,20.39
2017-12-25T05:29:57.046Z,20.36
2017-12-25T05:31:06.246Z,20.35
2017-12-25T05:32:15.207Z,20.35
2017-12-25T05:33:24.659Z,20.35
2017-12-25T05:34:33.390Z,20.33
2017-12-25T05:35:42.856Z,20.39
2017-12-25T05:36:52.317Z,20.35
2017-12-25T05:38:01.536Z,20.39
2017-12-25T05:39:10.741Z,20.28
2017-12-25T05:40:19.985Z,20.35
2017-12-25T05:41:29.453Z,20.36
2017-12-25T05:42:38.717Z,20.36
2017-12-25T05:43:48.183Z,20.36
2017-12-25T05:44:56.858Z,20.36
2017-12-25T05:46:06.066Z,20.42
2017-12-25T05:47:14.748Z,20.35
2017-12-25T05:48:23.957Z,20.39
2017-12-25T05:49:32.639Z,20.38
2017-12-25T05:50:41.596Z,20.36
2017-12-25T05:51:50.546Z,20.36
2017-12-25T05:52:59.498Z,20.38
2017-12-25T05:54:08.182Z,20.38
2017-12-25T05:55:17.395Z,20.38
2017-12-25T05:56:26.598Z,20.36
2017-12-25T05:57:36.117Z,20.39
2017-12-25T05:58:45.319Z,20.39
2017-12-25T05:59:54.266Z,20.29
2017-12-25T06:01:03.480Z,20.33
2017-12-25T06:02:12.507Z,20.41
2017-12-25T06:03:21.451Z,20.36
2017-12-25T06:04:30.943Z,20.31
2017-12-25T06:05:40.148Z,20.29
2017-12-25T06:06:49.620Z,20.38
2017-12-25T06:07:58.816Z,20.32
2017-12-25T06:09:08.029Z,20.39
2017-12-25T06:10:17.500Z,20.41
2017-12-25T06:11:26.442Z,20.36
2017-12-25T06:12:36.170Z,20.42
2017-12-25T06:13:45.464Z,20.42
2017-12-25T06:14:54.413Z,20.42
2017-12-25T06:16:03.373Z,20.32
2017-12-25T06:17:12.859Z,20.38
2017-12-25T06:18:21.798Z,20.41
2017-12-25T06:19:30.749Z,20.38
2017-12-25T06:20:39.692Z,20.36
2017-12-25T06:21:48.929Z,20.41
2017-12-25T06:22:57.875Z,20.39
2017-12-25T06:24:07.074Z,20.36
2017-12-25T06:25:16.805Z,20.38
2017-12-25T06:26:25.489Z,20.41
2017-12-25T06:27:34.170Z,20.38
2017-12-25T06:28:43.371Z,20.39
2017-12-25T06:29:52.835Z,20.36
2017-12-25T06:31:01.577Z,20.32
2017-12-25T06:32:10.557Z,20.33
2017-12-25T06:33:20.020Z,20.38
2017-12-25T06:34:28.975Z,20.39
2017-12-25T06:35:38.202Z,20.41
2017-12-25T06:36:47.147Z,20.39
2017-12-25T06:37:56.089Z,20.41
2017-12-25T06:39:05.293Z,20.39
2017-12-25T06:40:14.244Z,20.38
2017-12-25T06:41:23.459Z,20.42
2017-12-25T06:42:32.952Z,20.33
2017-12-25T06:43:42.153Z,20.33
2017-12-25T06:44:51.367Z,20.39
2017-12-25T06:46:00.060Z,20.38
2017-12-25T06:47:09.277Z,20.36
2017-12-25T06:48:18.222Z,20.38
2017-12-25T06:49:26.900Z,20.38
2017-12-25T06:50:35.579Z,20.39
2017-12-25T06:51:44.272Z,20.42
2017-12-25T06:52:53.798Z,20.42
2017-12-25T06:54:03.270Z,20.31
2017-12-25T06:55:12.460Z,20.32
2017-12-25T06:56:21.135Z,20.38
2017-12-25T06:57:30.616Z,20.35
2017-12-25T06:58:39.889Z,20.28
2017-12-25T06:59:49.104Z,20.36
2017-12-25T07:00:58.071Z,20.39
2017-12-25T07:02:06.823Z,20.33
2017-12-25T07:03:16.015Z,20.32
2017-12-25T07:04:24.954Z,20.32
2017-12-25T07:05:33.895Z,20.33
2017-12-25T07:06:42.857Z,20.41
2017-12-25T07:07:52.070Z,20.39
2017-12-25T07:09:01.585Z,20.38
2017-12-25T07:10:10.523Z,20.35
2017-12-25T07:11:19.764Z,20.32
2017-12-25T07:12:28.972Z,20.35
2017-12-25T07:13:37.667Z,20.28
2017-12-25T07:14:46.612Z,20.33
2017-12-25T07:15:55.567Z,20.42
2017-12-25T07:17:04.770Z,20.36
2017-12-25T07:18:13.968Z,20.41
2017-12-25T07:19:23.202Z,20.39
2017-12-25T07:20:32.406Z,20.32
2017-12-25T07:21:41.664Z,20.42
2017-12-25T07:22:50.881Z,20.35
2017-12-25T07:24:00.338Z,20.36
2017-12-25T07:25:09.876Z,20.35
2017-12-25T07:26:18.761Z,20.42
2017-12-25T07:27:28.428Z,20.39
2017-12-25T07:28:37.626Z,20.39
2017-12-25T07:29:46.565Z,20.38
2017-12-25T07:30:55.799Z,20.36
2017-12-25T07:32:05.261Z,20.39
2017-12-25T07:33:14.739Z,20.42
2017-12-25T07:34:23.426Z,20.32
2017-12-25T07:35:32.891Z,20.35
2017-12-25T07:36:41.841Z,20.31
2017-12-25T07:37:50.523Z,20.35
2017-12-25T07:38:59.206Z,20.33
2017-12-25T07:40:08.670Z,20.39
2017-12-25T07:41:18.408Z,20.35
2017-12-25T07:42:27.875Z,20.38
2017-12-25T07:43:37.345Z,20.36
2017-12-25T07:44:46.567Z,20.38
2017-12-25T07:45:56.044Z,20.42
2017-12-25T07:47:05.813Z,20.35
2017-12-25T07:48:15.258Z,20.28
2017-12-25T07:49:24.476Z,20.35
2017-12-25T07:50:33.690Z,20.33
2017-12-25T07:51:42.902Z,20.39
2017-12-25T07:52:52.105Z,20.35
2017-12-25T07:54:02.103Z,20.41
2017-12-25T07:55:11.065Z,20.38
2017-12-25T07:56:20.036Z,20.33
2017-12-25T07:57:29.533Z,20.38
2017-12-25T07:58:38.479Z,20.29
2017-12-25T07:59:47.430Z,20.38
2017-12-25T08:00:56.389Z,20.38
2017-12-25T08:02:05.629Z,20.35
2017-12-25T08:03:14.307Z,20.38
2017-12-25T08:04:23.254Z,20.39
2017-12-25T08:05:32.462Z,20.41
2017-12-25T08:06:41.675Z,20.36
2017-12-25T08:07:50.367Z,20.38
2017-12-25T08:08:59.302Z,20.36
2017-12-25T08:10:08.252Z,20.33
2017-12-25T08:11:17.467Z,20.35
2017-12-25T08:12:26.159Z,20.38
2017-12-25T08:13:35.376Z,20.35
2017-12-25T08:14:44.600Z,20.41
2017-12-25T08:15:53.288Z,20.39
2017-12-25T08:17:02.805Z,20.33
2017-12-25T08:18:12.023Z,20.39
2017-12-25T08:19:20.725Z,20.33
2017-12-25T08:20:29.933Z,20.38
2017-12-25T08:21:38.613Z,20.35
2017-12-25T08:22:47.566Z,20.38
2017-12-25T08:23:56.572Z,20.36
2017-12-25T08:25:05.297Z,20.38
2017-12-25T08:26:14.818Z,20.35
2017-12-25T08:27:24.549Z,20.39
2017-12-25T08:28:33.756Z,20.36
2017-12-25T08:29:42.701Z,20.33
2017-12-25T08:30:52.167Z,20.36
2017-12-25T08:32:01.639Z,20.41
2017-12-25T08:33:10.328Z,20.33
2017-12-25T08:34:19.520Z,20.39
2017-12-25T08:35:28.191Z,20.38
2017-12-25T08:36:37.654Z,20.36
2017-12-25T08:37:46.595Z,20.38
2017-12-25T08:38:56.072Z,20.42
2017-12-25T08:40:05.293Z,20.36
2017-12-25T08:41:14.760Z,20.38
2017-12-25T08:42:23.710Z,20.36
2017-12-25T08:43:32.657Z,20.39
2017-12-25T08:44:41.936Z,20.33
2017-12-25T08:45:51.391Z,20.31
2017-12-25T08:47:01.117Z,20.41
2017-12-25T08:48:10.059Z,20.29
2017-12-25T08:49:19.253Z,20.38
2017-12-25T08:50:28.464Z,20.43
2017-12-25T08:51:37.921Z,20.41
2017-12-25T08:52:47.399Z,20.39
2017-12-25T08:53:56.332Z,20.42
2017-12-25T08:55:05.838Z,20.35
2017-12-25T08:56:15.062Z,20.41
2017-12-25T08:57:24.306Z,20.42
2017-12-25T08:58:33.277Z,20.39
2017-12-25T08:59:42.485Z,20.47
2017-12-25T09:00:51.945Z,20.41
2017-12-25T09:02:00.890Z,20.39
2017-12-25T09:03:09.568Z,20.41
2017-12-25T09:04:18.525Z,20.42
2017-12-25T09:05:27.728Z,20.42
2017-12-25T09:06:36.931Z,20.42
2017-12-25T09:07:46.404Z,20.36
2017-12-25T09:08:55.632Z,20.47
2017-12-25T09:10:04.586Z,20.39
2017-12-25T09:11:13.785Z,20.41
2017-12-25T09:12:23.014Z,20.42
2017-12-25T09:13:32.763Z,20.43
2017-12-25T09:14:41.974Z,20.41
2017-12-25T09:15:50.654Z,20.41
2017-12-25T09:16:59.588Z,20.42
2017-12-25T09:18:09.065Z,20.41
2017-12-25T09:19:18.267Z,20.41
2017-12-25T09:20:26.954Z,20.51
2017-12-25T09:21:35.631Z,20.42
2017-12-25T09:22:44.579Z,20.47
2017-12-25T09:23:53.520Z,20.43
2017-12-25T09:25:02.987Z,20.52
2017-12-25T09:26:11.932Z,20.52
2017-12-25T09:27:21.420Z,20.42
2017-12-25T09:28:30.361Z,20.48
2017-12-25T09:29:39.060Z,20.55
2017-12-25T09:30:48.313Z,20.51
2017-12-25T09:31:57.251Z,20.48
2017-12-25T09:33:06.471Z,20.5
2017-12-25T09:34:15.939Z,20.43
2017-12-25T09:35:25.145Z,20.42
2017-12-25T09:36:34.603Z,20.54
2017-12-25T09:37:44.130Z,20.51
2017-12-25T09:38:53.070Z,20.48
2017-12-25T09:40:02.268Z,20.43
2017-12-25T09:41:11.491Z,20.51
2017-12-25T09:42:21.214Z,20.5
2017-12-25T09:43:30.930Z,20.48
2017-12-25T09:44:40.136Z,20.36
2017-12-25T09:45:49.610Z,20.5
2017-12-25T09:46:58.550Z,20.52
2017-12-25T09:48:07.503Z,20.47
2017-12-25T09:49:16.702Z,20.54
2017-12-25T09:50:25.644Z,20.42
2017-12-25T09:51:35.376Z,20.55
2017-12-25T09:52:44.304Z,20.5
2017-12-25T09:53:53.500Z,20.55
2017-12-25T09:55:02.457Z,20.54
2017-12-25T09:56:11.139Z,20.48
2017-12-25T09:57:20.086Z,20.55
2017-12-25T09:58:29.073Z,20.54
2017-12-25T09:59:38.020Z,20.51
2017-12-25T10:00:46.963Z,20.51
2017-12-25T10:01:56.158Z,20.51
2017-12-25T10:03:05.840Z,20.42
2017-12-25T10:04:15.048Z,20.43
2017-12-25T10:05:24.518Z,20.58
2017-12-25T10:06:33.476Z,20.51
2017-12-25T10:07:42.426Z,20.48
2017-12-25T10:08:51.374Z,20.5
2017-12-25T10:10:00.838Z,20.51
2017-12-25T10:11:10.322Z,20.42
2017-12-25T10:12:20.088Z,20.55
2017-12-25T10:13:29.553Z,20.42
2017-12-25T10:14:38.754Z,20.42
2017-12-25T10:15:47.704Z,20.42
2017-12-25T10:16:56.379Z,20.43
2017-12-25T10:18:05.328Z,20.58
2017-12-25T10:19:14.268Z,20.47
2017-12-25T10:20:23.992Z,20.58
2017-12-25T10:21:32.672Z,20.47
2017-12-25T10:22:41.609Z,20.52
2017-12-25T10:23:51.073Z,20.58
2017-12-25T10:25:00.835Z,20.55
2017-12-25T10:26:10.355Z,20.47
2017-12-25T10:27:19.557Z,20.55
2017-12-25T10:28:28.524Z,20.58
2017-12-25T10:29:37.722Z,20.51
2017-12-25T10:30:46.666Z,20.52
2017-12-25T10:31:55.884Z,20.62
2017-12-25T10:33:05.101Z,20.55
2017-12-25T10:34:14.300Z,20.59
2017-12-25T10:35:23.246Z,20.52
2017-12-25T10:36:32.211Z,20.57
2017-12-25T10:37:41.671Z,20.61
2017-12-25T10:38:50.618Z,20.59
2017-12-25T10:39:59.297Z,20.59
2017-12-25T10:41:08.504Z,20.54
2017-12-25T10:42:17.975Z,20.62
2017-12-25T10:43:26.921Z,20.59
2017-12-25T10:44:35.859Z,20.66
2017-12-25T10:45:44.810Z,20.61
2017-12-25T10:46:54.044Z,20.64
2017-12-25T10:48:02.727Z,20.66
2017-12-25T10:49:12.462Z,20.62
2017-12-25T10:50:21.670Z,20.64
2017-12-25T10:51:30.371Z,20.59
2017-12-25T10:52:39.601Z,20.61
2017-12-25T10:53:48.559Z,20.67
2017-12-25T10:54:57.782Z,20.59
2017-12-25T10:56:07.257Z,20.64
2017-12-25T10:57:16.461Z,20.59
2017-12-25T10:58:25.415Z,20.64
2017-12-25T10:59:34.625Z,20.67
2017-12-25T11:00:43.864Z,20.61
2017-12-25T11:01:53.337Z,20.61
2017-12-25T11:03:03.098Z,20.69
2017-12-25T11:04:12.036Z,20.66
2017-12-25T11:05:20.995Z,20.72
2017-12-25T11:06:30.201Z,20.72
2017-12-25T11:07:39.225Z,20.64
2017-12-25T11:08:48.737Z,20.74
2017-12-25T11:09:57.679Z,20.72
2017-12-25T11:11:06.901Z,20.64
2017-12-25T11:12:15.847Z,20.67
2017-12-25T11:13:25.050Z,20.64
2017-12-25T11:14:34.007Z,20.69
2017-12-25T11:15:42.704Z,20.67
2017-12-25T11:16:51.899Z,20.67
2017-12-25T11:18:01.382Z,20.67
2017-12-25T11:19:10.608Z,20.66
2017-12-25T11:20:19.852Z,20.69
2017-12-25T11:21:28.819Z,20.69
2017-12-25T11:22:37.594Z,20.72
2017-12-25T11:23:46.612Z,20.7
2017-12-25T11:24:56.160Z,20.67
2017-12-25T11:26:05.099Z,20.82
2017-12-25T11:27:14.067Z,20.72
2017-12-25T11:28:23.551Z,20.72
2017-12-25T11:29:32.764Z,20.66
2017-12-25T11:30:41.747Z,20.7
2017-12-25T11:31:50.988Z,20.77
2017-12-25T11:33:00.014Z,20.8
2017-12-25T11:34:09.225Z,20.73
2017-12-25T11:35:18.453Z,20.67
2017-12-25T11:36:27.934Z,20.69
2017-12-25T11:37:36.916Z,20.79
2017-12-25T11:38:46.427Z,20.77
2017-12-25T11:39:55.373Z,20.69
2017-12-25T11:41:04.850Z,20.73
2017-12-25T11:42:13.627Z,20.79
2017-12-25T11:43:23.091Z,20.76
2017-12-25T11:44:32.289Z,20.82
2017-12-25T11:45:41.221Z,20.79
2017-12-25T11:46:50.441Z,20.73
2017-12-25T11:47:59.381Z,20.82
2017-12-25T11:49:08.875Z,20.64
2017-12-25T11:50:18.084Z,20.72
2017-12-25T11:51:27.292Z,20.72
2017-12-25T11:52:36.252Z,20.72
2017-12-25T11:53:45.448Z,20.69
2017-12-25T11:54:54.656Z,20.72
2017-12-25T11:56:03.617Z,20.76
2017-12-25T11:57:12.846Z,20.67
2017-12-25T11:58:22.306Z,20.72
2017-12-25T11:59:31.520Z,20.77
2017-12-25T12:00:41.253Z,20.73
2017-12-25T12:01:50.721Z,20.69
2017-12-25T12:03:00.176Z,20.67
2017-12-25T12:04:09.396Z,20.77
2017-12-25T12:05:18.327Z,20.72
2017-12-25T12:06:27.268Z,20.7
2017-12-25T12:07:35.940Z,20.69
2017-12-25T12:08:45.210Z,20.7
2017-12-25T12:09:54.414Z,20.79
2017-12-25T12:11:03.364Z,20.82
2017-12-25T12:12:12.566Z,20.8
2017-12-25T12:13:21.254Z,20.82
2017-12-25T12:14:30.477Z,20.76
2017-12-25T12:15:39.946Z,20.77
2017-12-25T12:16:48.638Z,20.77
2017-12-25T12:17:57.581Z,20.77
2017-12-25T12:19:06.531Z,20.72
2017-12-25T12:20:16.004Z,20.7
2017-12-25T12:21:25.474Z,20.72
2017-12-25T12:22:34.684Z,20.64
2017-12-25T12:23:44.154Z,20.67
2017-12-25T12:24:53.105Z,20.67
2017-12-25T12:26:02.045Z,20.84
2017-12-25T12:27:11.015Z,20.67
2017-12-25T12:28:19.702Z,20.72
2017-12-25T12:29:29.182Z,20.72
2017-12-25T12:30:38.399Z,20.66
2017-12-25T12:31:47.859Z,20.62
2017-12-25T12:32:57.330Z,20.64
2017-12-25T12:34:06.538Z,20.66
2017-12-25T12:35:15.231Z,20.73
2017-12-25T12:36:24.176Z,20.74
2017-12-25T12:37:33.377Z,20.66
2017-12-25T12:38:42.316Z,20.66
2017-12-25T12:39:51.782Z,20.72
2017-12-25T12:41:01.016Z,20.64
2017-12-25T12:42:09.954Z,20.72
2017-12-25T12:43:18.906Z,20.73
2017-12-25T12:44:27.968Z,20.69
2017-12-25T12:45:37.169Z,20.67
2017-12-25T12:46:46.134Z,20.64
2017-12-25T12:47:54.806Z,20.8
2017-12-25T12:49:03.499Z,20.72
2017-12-25T12:50:12.189Z,20.7
2017-12-25T12:51:21.140Z,20.69
2017-12-25T12:52:30.094Z,20.67
2017-12-25T12:53:38.771Z,20.66
2017-12-25T12:54:47.734Z,20.72
2017-12-25T12:55:56.678Z,20.7
2017-12-25T12:57:06.409Z,20.72
2017-12-25T12:58:15.101Z,20.69
2017-12-25T12:59:23.776Z,20.66
2017-12-25T13:00:32.725Z,20.69
2017-12-25T13:01:42.184Z,20.67
2017-12-25T13:02:51.408Z,20.67
2017-12-25T13:04:00.359Z,20.64
2017-12-25T13:05:09.575Z,20.69
2017-12-25T13:06:18.845Z,20.67
2017-12-25T13:07:28.089Z,20.69
2017-12-25T13:08:36.762Z,20.67
2017-12-25T13:09:45.452Z,20.72
2017-12-25T13:10:54.403Z,20.67
2017-12-25T13:12:03.875Z,20.73
2017-12-25T13:13:12.835Z,20.66
2017-12-25T13:14:21.515Z,20.64
2017-12-25T13:15:30.483Z,20.61
2017-12-25T13:16:39.706Z,20.7
2017-12-25T13:17:48.404Z,20.76
2017-12-25T13:18:57.876Z,20.72
2017-12-25T13:20:07.091Z,20.7
2017-12-25T13:21:16.050Z,20.72
2017-12-25T13:22:25.003Z,20.69
2017-12-25T13:23:33.996Z,20.72
2017-12-25T13:24:42.952Z,20.72
2017-12-25T13:25:52.428Z,20.7
2017-12-25T13:27:01.892Z,20.69
2017-12-25T13:28:11.093Z,20.7
2017-12-25T13:29:20.324Z,20.67
2017-12-25T13:30:29.792Z,20.69
2017-12-25T13:31:39.544Z,20.7
2017-12-25T13:32:48.486Z,20.69
2017-12-25T13:33:57.431Z,20.73
2017-12-25T13:35:06.114Z,20.7
2017-12-25T13:36:15.068Z,20.66
2017-12-25T13:37:24.272Z,20.66
2017-12-25T13:38:33.495Z,20.69
2017-12-25T13:39:42.707Z,20.69
2017-12-25T13:40:51.648Z,20.67
2017-12-25T13:42:00.865Z,20.69
2017-12-25T13:43:10.080Z,20.67
2017-12-25T13:44:19.299Z,20.64
2017-12-25T13:45:28.275Z,20.7
2017-12-25T13:46:36.959Z,20.7
2017-12-25T13:47:46.230Z,20.64
2017-12-25T13:48:55.450Z,20.7
2017-12-25T13:50:04.940Z,20.64
2017-12-25T13:51:14.676Z,20.66
2017-12-25T13:52:23.907Z,20.7
2017-12-25T13:53:33.122Z,20.66
2017-12-25T13:54:42.393Z,20.62
2017-12-25T13:55:51.857Z,20.7
2017-12-25T13:57:01.095Z,20.67
2017-12-25T13:58:10.057Z,20.59
2017-12-25T13:59:19.023Z,20.55
2017-12-25T14:00:28.216Z,20.62
2017-12-25T14:01:37.162Z,20.69
2017-12-25T14:02:46.360Z,20.61
2017-12-25T14:03:55.332Z,20.61
2017-12-25T14:05:04.559Z,20.58
2017-12-25T14:06:13.510Z,20.61
2017-12-25T14:07:22.978Z,20.58
2017-12-25T14:08:32.710Z,20.64
2017-12-25T14:09:41.914Z,20.58
2017-12-25T14:10:51.147Z,20.55
2017-12-25T14:12:00.348Z,20.59
2017-12-25T14:13:09.026Z,20.54
2017-12-25T14:14:17.974Z,20.59
2017-12-25T14:15:27.179Z,20.52
2017-12-25T14:16:36.911Z,20.59
2017-12-25T14:17:45.592Z,20.55
2017-12-25T14:18:54.815Z,20.59
2017-12-25T14:20:04.015Z,20.55
2017-12-25T14:21:13.247Z,20.51
2017-12-25T14:22:22.458Z,20.54
2017-12-25T14:23:32.374Z,20.54
2017-12-25T14:24:41.323Z,20.52
2017-12-25T14:25:50.271Z,20.58
2017-12-25T14:26:59.746Z,20.43
2017-12-25T14:28:09.217Z,20.5
2017-12-25T14:29:18.211Z,20.52
2017-12-25T14:30:27.410Z,20.54
2017-12-25T14:31:36.355Z,20.48
2017-12-25T14:32:45.573Z,20.58
2017-12-25T14:33:54.856Z,20.57
2017-12-25T14:35:04.333Z,20.54
2017-12-25T14:36:13.290Z,20.47
2017-12-25T14:37:22.246Z,20.51
2017-12-25T14:38:31.445Z,20.41
2017-12-25T14:39:40.958Z,20.42
2017-12-25T14:40:50.435Z,20.41
2017-12-25T14:41:59.681Z,20.51
2017-12-25T14:43:09.167Z,20.55
2017-12-25T14:44:18.126Z,20.55
2017-12-25T14:45:27.589Z,20.47
2017-12-25T14:46:36.796Z,20.58
2017-12-25T14:47:45.738Z,20.51
2017-12-25T14:48:55.061Z,20.52
2017-12-25T14:50:04.323Z,20.47
2017-12-25T14:51:13.015Z,20.48